sensor_id;sensor_type;location;lat;lon;timestamp;temperature;humidity
4435;DHT22;46552;52.150;8.428;2023-03-18T00:00:58;12.70;99.90
4435;DHT22;46552;52.150;8.428;2023-03-18T00:06:02;12.60;99.90
4435;DHT22;46552;52.150;8.428;2023-03-18T00:08:31;12.60;99.90
4435;DHT22;46552;52.150;8.428;2023-03-18T00:25:48;12.40;99.90
4435;DHT22;46552;52.150;8.428;2023-03-18T00:33:15;12.30;99.90
4435;DHT22;46552;52.150;8.428;2023-03-18T00:40:47;12.10;99.90
4435;DHT22;46552;52.150;8.428;2023-03-18T00:43:27;12.10;99.90
4435;DHT22;46552;52.150;8.428;2023-03-18T00:50:55;12.10;99.90
4435;DHT22;46552;52.150;8.428;2023-03-18T00:55:52;12.00;99.90
4435;DHT22;46552;52.150;8.428;2023-03-18T01:13:07;11.80;99.90
4435;DHT22;46552;52.150;8.428;2023-03-18T01:30:21;11.70;99.90
4435;DHT22;46552;52.150;8.428;2023-03-18T01:37:45;11.70;99.90
4435;DHT22;46552;52.150;8.428;2023-03-18T01:40:13;9.70;99.90
4435;DHT22;46552;52.150;8.428;2023-03-18T01:42:42;11.60;99.90
4435;DHT22;46552;52.150;8.428;2023-03-18T01:45:16;11.60;99.90
4435;DHT22;46552;52.150;8.428;2023-03-18T01:47:46;11.60;99.90
4435;DHT22;46552;52.150;8.428;2023-03-18T01:50:15;11.50;99.90
4435;DHT22;46552;52.150;8.428;2023-03-18T01:52:44;11.50;99.90
4435;DHT22;46552;52.150;8.428;2023-03-18T01:55:15;11.50;99.90
4435;DHT22;46552;52.150;8.428;2023-03-18T01:57:44;11.50;99.90
4435;DHT22;46552;52.150;8.428;2023-03-18T02:00:13;11.40;99.90
4435;DHT22;46552;52.150;8.428;2023-03-18T02:02:43;11.50;99.90
4435;DHT22;46552;52.150;8.428;2023-03-18T02:05:14;11.40;99.90
4435;DHT22;46552;52.150;8.428;2023-03-18T02:07:44;11.40;99.90
4435;DHT22;46552;52.150;8.428;2023-03-18T02:10:14;11.40;99.90
4435;DHT22;46552;52.150;8.428;2023-03-18T02:12:43;11.50;99.90
4435;DHT22;46552;52.150;8.428;2023-03-18T02:15:14;11.40;99.90
4435;DHT22;46552;52.150;8.428;2023-03-18T02:17:45;11.40;99.90
4435;DHT22;46552;52.150;8.428;2023-03-18T02:20:28;11.40;99.90
4435;DHT22;46552;52.150;8.428;2023-03-18T02:23:05;11.40;99.90
4435;DHT22;46552;52.150;8.428;2023-03-18T02:25:40;11.50;99.90
4435;DHT22;46552;52.150;8.428;2023-03-18T02:28:13;11.50;99.90
4435;DHT22;46552;52.150;8.428;2023-03-18T02:30:46;11.50;99.90
4435;DHT22;46552;52.150;8.428;2023-03-18T02:33:14;11.40;99.90
4435;DHT22;46552;52.150;8.428;2023-03-18T02:35:44;11.60;99.90
4435;DHT22;46552;52.150;8.428;2023-03-18T02:40:40;11.60;99.90
4435;DHT22;46552;52.150;8.428;2023-03-18T02:43:22;11.50;99.90
4435;DHT22;46552;52.150;8.428;2023-03-18T02:46:00;11.60;99.90
4435;DHT22;46552;52.150;8.428;2023-03-18T02:48:34;11.70;99.90
4435;DHT22;46552;52.150;8.428;2023-03-18T02:51:02;11.60;99.90
4435;DHT22;46552;52.150;8.428;2023-03-18T02:58:28;11.70;99.90
4435;DHT22;46552;52.150;8.428;2023-03-18T03:15:45;11.60;99.90
4435;DHT22;46552;52.150;8.428;2023-03-18T03:23:11;11.60;99.90
4435;DHT22;46552;52.150;8.428;2023-03-18T03:33:05;11.70;99.90
4435;DHT22;46552;52.150;8.428;2023-03-18T03:47:50;11.70;99.90
4435;DHT22;46552;52.150;8.428;2023-03-18T03:50:21;11.70;99.90
4435;DHT22;46552;52.150;8.428;2023-03-18T03:55:19;11.70;99.90
4435;DHT22;46552;52.150;8.428;2023-03-18T03:57:47;11.60;99.90
4435;DHT22;46552;52.150;8.428;2023-03-18T04:00:17;11.60;99.90
4435;DHT22;46552;52.150;8.428;2023-03-18T04:02:49;11.40;99.90
4435;DHT22;46552;52.150;8.428;2023-03-18T04:05:19;11.60;99.90
4435;DHT22;46552;52.150;8.428;2023-03-18T04:10:16;11.50;99.90
4435;DHT22;46552;52.150;8.428;2023-03-18T04:20:10;11.30;99.90
4435;DHT22;46552;52.150;8.428;2023-03-18T04:22:39;11.40;99.90
4435;DHT22;46552;52.150;8.428;2023-03-18T04:25:07;11.50;99.90
4435;DHT22;46552;52.150;8.428;2023-03-18T04:30:04;11.30;99.90
4435;DHT22;46552;52.150;8.428;2023-03-18T04:39:57;11.30;99.90
4435;DHT22;46552;52.150;8.428;2023-03-18T04:57:15;11.20;99.90
4435;DHT22;46552;52.150;8.428;2023-03-18T05:14:29;11.30;99.90
4435;DHT22;46552;52.150;8.428;2023-03-18T05:31:44;11.30;99.90
4435;DHT22;46552;52.150;8.428;2023-03-18T05:36:41;11.30;99.90
4435;DHT22;46552;52.150;8.428;2023-03-18T05:49:00;11.40;99.90
4435;DHT22;46552;52.150;8.428;2023-03-18T06:06:15;11.40;99.90
4435;DHT22;46552;52.150;8.428;2023-03-18T06:16:05;11.50;99.90
4435;DHT22;46552;52.150;8.428;2023-03-18T06:23:29;11.50;99.90
4435;DHT22;46552;52.150;8.428;2023-03-18T06:30:54;11.60;99.90
4435;DHT22;46552;52.150;8.428;2023-03-18T06:40:46;11.70;99.90
4435;DHT22;46552;52.150;8.428;2023-03-18T06:58:00;11.90;99.90
4435;DHT22;46552;52.150;8.428;2023-03-18T07:02:57;11.90;99.90
4435;DHT22;46552;52.150;8.428;2023-03-18T07:10:22;12.00;99.90
4435;DHT22;46552;52.150;8.428;2023-03-18T07:15:20;12.00;99.90
4435;DHT22;46552;52.150;8.428;2023-03-18T07:17:49;12.10;99.90
4435;DHT22;46552;52.150;8.428;2023-03-18T07:22:45;12.10;99.90
4435;DHT22;46552;52.150;8.428;2023-03-18T07:30:09;12.10;99.90
4435;DHT22;46552;52.150;8.428;2023-03-18T07:32:38;12.20;99.90
4435;DHT22;46552;52.150;8.428;2023-03-18T07:35:06;12.40;99.90
4435;DHT22;46552;52.150;8.428;2023-03-18T07:40:05;12.30;99.90
4435;DHT22;46552;52.150;8.428;2023-03-18T07:49:57;12.30;99.90
4435;DHT22;46552;52.150;8.428;2023-03-18T08:07:12;13.30;99.90
4435;DHT22;46552;52.150;8.428;2023-03-18T08:12:07;13.30;99.90
4435;DHT22;46552;52.150;8.428;2023-03-18T08:24:26;13.10;99.90
4435;DHT22;46552;52.150;8.428;2023-03-18T08:41:42;13.00;99.90
4435;DHT22;46552;52.150;8.428;2023-03-18T08:59:00;13.60;99.90
4435;DHT22;46552;52.150;8.428;2023-03-18T09:16:15;14.30;99.90
4435;DHT22;46552;52.150;8.428;2023-03-18T09:23:38;14.20;99.90
4435;DHT22;46552;52.150;8.428;2023-03-18T09:33:32;13.90;99.90
4435;DHT22;46552;52.150;8.428;2023-03-18T09:41:04;13.90;99.90
4435;DHT22;46552;52.150;8.428;2023-03-18T09:43:52;14.00;99.90
4435;DHT22;46552;52.150;8.428;2023-03-18T09:46:27;14.10;99.90
4435;DHT22;46552;52.150;8.428;2023-03-18T09:49:25;14.20;99.90
4435;DHT22;46552;52.150;8.428;2023-03-18T09:52:12;14.20;99.90
4435;DHT22;46552;52.150;8.428;2023-03-18T09:54:43;14.30;99.90
4435;DHT22;46552;52.150;8.428;2023-03-18T09:57:18;14.40;99.90
4435;DHT22;46552;52.150;8.428;2023-03-18T09:59:48;14.40;99.90
4435;DHT22;46552;52.150;8.428;2023-03-18T10:02:20;14.40;99.90
4435;DHT22;46552;52.150;8.428;2023-03-18T10:04:52;14.60;99.90
4435;DHT22;46552;52.150;8.428;2023-03-18T10:07:24;14.80;99.90
4435;DHT22;46552;52.150;8.428;2023-03-18T10:09:54;15.00;99.90
4435;DHT22;46552;52.150;8.428;2023-03-18T10:12:29;15.10;99.90
4435;DHT22;46552;52.150;8.428;2023-03-18T10:15:05;15.10;99.90
4435;DHT22;46552;52.150;8.428;2023-03-18T10:17:38;15.20;99.90
4435;DHT22;46552;52.150;8.428;2023-03-18T10:20:18;15.20;99.90
4435;DHT22;46552;52.150;8.428;2023-03-18T10:22:59;15.10;99.90
4435;DHT22;46552;52.150;8.428;2023-03-18T10:25:34;15.10;99.90
4435;DHT22;46552;52.150;8.428;2023-03-18T10:28:13;15.00;99.90
4435;DHT22;46552;52.150;8.428;2023-03-18T10:30:51;14.80;99.90
4435;DHT22;46552;52.150;8.428;2023-03-18T10:33:24;14.70;99.90
4435;DHT22;46552;52.150;8.428;2023-03-18T10:36:05;14.60;99.90
4435;DHT22;46552;52.150;8.428;2023-03-18T10:38:37;14.50;99.90
4435;DHT22;46552;52.150;8.428;2023-03-18T10:41:14;14.50;99.90
4435;DHT22;46552;52.150;8.428;2023-03-18T10:43:43;14.70;99.90
4435;DHT22;46552;52.150;8.428;2023-03-18T10:46:14;14.90;99.90
4435;DHT22;46552;52.150;8.428;2023-03-18T10:48:44;15.20;99.90
4435;DHT22;46552;52.150;8.428;2023-03-18T10:51:18;15.70;99.90
4435;DHT22;46552;52.150;8.428;2023-03-18T10:53:54;15.90;99.90
4435;DHT22;46552;52.150;8.428;2023-03-18T11:01:21;16.20;99.90
4435;DHT22;46552;52.150;8.428;2023-03-18T11:03:52;16.30;99.90
4435;DHT22;46552;52.150;8.428;2023-03-18T11:06:25;16.40;99.90
4435;DHT22;46552;52.150;8.428;2023-03-18T11:09:01;16.60;99.90
4435;DHT22;46552;52.150;8.428;2023-03-18T11:11:33;16.60;99.90
4435;DHT22;46552;52.150;8.428;2023-03-18T11:14:02;16.80;99.90
4435;DHT22;46552;52.150;8.428;2023-03-18T11:16:33;17.00;99.90
4435;DHT22;46552;52.150;8.428;2023-03-18T11:19:23;16.70;99.90
4435;DHT22;46552;52.150;8.428;2023-03-18T11:22:04;17.00;99.90
4435;DHT22;46552;52.150;8.428;2023-03-18T11:24:33;17.10;99.90
4435;DHT22;46552;52.150;8.428;2023-03-18T11:27:24;17.20;99.90
4435;DHT22;46552;52.150;8.428;2023-03-18T11:29:55;17.30;99.90
4435;DHT22;46552;52.150;8.428;2023-03-18T11:32:24;17.20;99.90
4435;DHT22;46552;52.150;8.428;2023-03-18T11:34:55;17.30;99.90
4435;DHT22;46552;52.150;8.428;2023-03-18T11:37:31;17.20;99.90
4435;DHT22;46552;52.150;8.428;2023-03-18T11:40:16;17.10;99.90
4435;DHT22;46552;52.150;8.428;2023-03-18T11:42:45;17.10;99.90
4435;DHT22;46552;52.150;8.428;2023-03-18T11:45:42;17.30;99.90
4435;DHT22;46552;52.150;8.428;2023-03-18T11:48:16;17.40;99.90
4435;DHT22;46552;52.150;8.428;2023-03-18T11:50:55;17.50;99.90
4435;DHT22;46552;52.150;8.428;2023-03-18T11:53:29;17.60;99.90
4435;DHT22;46552;52.150;8.428;2023-03-18T11:56:06;17.60;99.90
4435;DHT22;46552;52.150;8.428;2023-03-18T11:58:59;17.70;99.90
4435;DHT22;46552;52.150;8.428;2023-03-18T12:01:34;17.80;99.90
4435;DHT22;46552;52.150;8.428;2023-03-18T12:07:43;18.10;99.90
4435;DHT22;46552;52.150;8.428;2023-03-18T12:10:18;18.30;99.90
4435;DHT22;46552;52.150;8.428;2023-03-18T12:12:58;18.30;99.90
4435;DHT22;46552;52.150;8.428;2023-03-18T12:15:36;18.30;99.90
4435;DHT22;46552;52.150;8.428;2023-03-18T12:18:15;18.40;99.90
4435;DHT22;46552;52.150;8.428;2023-03-18T12:20:50;18.40;99.90
4435;DHT22;46552;52.150;8.428;2023-03-18T12:23:38;18.80;99.90
4435;DHT22;46552;52.150;8.428;2023-03-18T12:26:16;19.00;99.90
4435;DHT22;46552;52.150;8.428;2023-03-18T12:29:12;19.10;99.90
4435;DHT22;46552;52.150;8.428;2023-03-18T12:31:54;19.30;99.90
4435;DHT22;46552;52.150;8.428;2023-03-18T12:34:41;19.50;99.80
4435;DHT22;46552;52.150;8.428;2023-03-18T12:37:23;19.60;99.40
4435;DHT22;46552;52.150;8.428;2023-03-18T12:40:10;19.60;99.00
4435;DHT22;46552;52.150;8.428;2023-03-18T12:42:59;19.50;99.90
4435;DHT22;46552;52.150;8.428;2023-03-18T12:45:35;19.90;98.30
4435;DHT22;46552;52.150;8.428;2023-03-18T12:48:08;19.80;99.90
4435;DHT22;46552;52.150;8.428;2023-03-18T12:50:39;20.30;99.90
4435;DHT22;46552;52.150;8.428;2023-03-18T12:53:12;20.20;99.30
4435;DHT22;46552;52.150;8.428;2023-03-18T12:55:43;20.20;98.70
4435;DHT22;46552;52.150;8.428;2023-03-18T12:58:17;20.20;97.10
4435;DHT22;46552;52.150;8.428;2023-03-18T13:00:48;20.20;96.90
4435;DHT22;46552;52.150;8.428;2023-03-18T13:03:30;20.10;96.80
4435;DHT22;46552;52.150;8.428;2023-03-18T13:06:01;20.00;97.10
4435;DHT22;46552;52.150;8.428;2023-03-18T13:08:44;20.10;96.60
4435;DHT22;46552;52.150;8.428;2023-03-18T13:11:25;20.30;96.50
4435;DHT22;46552;52.150;8.428;2023-03-18T13:13:59;20.40;96.20
4435;DHT22;46552;52.150;8.428;2023-03-18T13:16:27;20.40;98.60
4435;DHT22;46552;52.150;8.428;2023-03-18T13:18:56;20.70;97.80
4435;DHT22;46552;52.150;8.428;2023-03-18T13:21:29;20.60;98.10
4435;DHT22;46552;52.150;8.428;2023-03-18T13:24:06;20.30;95.00
4435;DHT22;46552;52.150;8.428;2023-03-18T13:29:51;20.30;95.20
4435;DHT22;46552;52.150;8.428;2023-03-18T13:32:34;20.30;95.10
4435;DHT22;46552;52.150;8.428;2023-03-18T13:35:22;20.00;98.10
4435;DHT22;46552;52.150;8.428;2023-03-18T13:38:04;19.80;95.50
4435;DHT22;46552;52.150;8.428;2023-03-18T13:41:05;19.80;95.60
4435;DHT22;46552;52.150;8.428;2023-03-18T13:43:38;19.80;95.50
4435;DHT22;46552;52.150;8.428;2023-03-18T13:46:16;19.80;98.30
4435;DHT22;46552;52.150;8.428;2023-03-18T13:48:45;19.70;95.30
4435;DHT22;46552;52.150;8.428;2023-03-18T13:54:12;19.40;95.50
4435;DHT22;46552;52.150;8.428;2023-03-18T13:56:48;19.20;95.50
4435;DHT22;46552;52.150;8.428;2023-03-18T13:59:43;19.10;98.40
4435;DHT22;46552;52.150;8.428;2023-03-18T14:02:32;19.00;97.10
4435;DHT22;46552;52.150;8.428;2023-03-18T14:07:29;18.80;99.00
4435;DHT22;46552;52.150;8.428;2023-03-18T14:10:16;18.90;98.90
4435;DHT22;46552;52.150;8.428;2023-03-18T14:12:45;19.30;99.10
4435;DHT22;46552;52.150;8.428;2023-03-18T14:15:36;18.90;95.90
4435;DHT22;46552;52.150;8.428;2023-03-18T14:18:20;19.00;95.60
4435;DHT22;46552;52.150;8.428;2023-03-18T14:20:52;19.00;96.60
4435;DHT22;46552;52.150;8.428;2023-03-18T14:23:37;19.10;97.80
4435;DHT22;46552;52.150;8.428;2023-03-18T14:26:07;19.00;95.40
4435;DHT22;46552;52.150;8.428;2023-03-18T14:28:45;18.90;95.60
4435;DHT22;46552;52.150;8.428;2023-03-18T14:31:19;18.70;98.70
4435;DHT22;46552;52.150;8.428;2023-03-18T14:34:01;18.80;95.70
4435;DHT22;46552;52.150;8.428;2023-03-18T14:39:30;18.60;95.90
4435;DHT22;46552;52.150;8.428;2023-03-18T14:42:02;18.50;99.00
4435;DHT22;46552;52.150;8.428;2023-03-18T14:44:35;18.50;95.90
4435;DHT22;46552;52.150;8.428;2023-03-18T14:47:15;18.60;96.00
4435;DHT22;46552;52.150;8.428;2023-03-18T14:49:48;18.60;95.90
4435;DHT22;46552;52.150;8.428;2023-03-18T14:52:26;18.60;95.90
4435;DHT22;46552;52.150;8.428;2023-03-18T14:54:57;18.50;95.80
4435;DHT22;46552;52.150;8.428;2023-03-18T15:02:23;18.20;96.30
4435;DHT22;46552;52.150;8.428;2023-03-18T15:04:55;18.20;96.30
4435;DHT22;46552;52.150;8.428;2023-03-18T15:07:31;18.20;99.60
4435;DHT22;46552;52.150;8.428;2023-03-18T15:10:01;18.20;96.60
4435;DHT22;46552;52.150;8.428;2023-03-18T15:14:56;18.50;99.70
4435;DHT22;46552;52.150;8.428;2023-03-18T15:17:24;18.60;99.90
4435;DHT22;46552;52.150;8.428;2023-03-18T15:19:58;18.70;98.00
4435;DHT22;46552;52.150;8.428;2023-03-18T15:22:28;18.60;96.60
4435;DHT22;46552;52.150;8.428;2023-03-18T15:24:59;18.70;96.60
4435;DHT22;46552;52.150;8.428;2023-03-18T15:27:28;18.70;96.00
4435;DHT22;46552;52.150;8.428;2023-03-18T15:29:57;18.50;96.20
4435;DHT22;46552;52.150;8.428;2023-03-18T15:32:26;18.30;99.30
4435;DHT22;46552;52.150;8.428;2023-03-18T15:34:57;18.40;99.50
4435;DHT22;46552;52.150;8.428;2023-03-18T15:37:34;18.50;96.40
4435;DHT22;46552;52.150;8.428;2023-03-18T15:40:28;18.50;96.40
4435;DHT22;46552;52.150;8.428;2023-03-18T15:42:57;18.40;99.00
4435;DHT22;46552;52.150;8.428;2023-03-18T15:45:27;18.30;96.30
4435;DHT22;46552;52.150;8.428;2023-03-18T15:47:56;18.30;96.40
4435;DHT22;46552;52.150;8.428;2023-03-18T15:50:29;18.20;96.50
4435;DHT22;46552;52.150;8.428;2023-03-18T15:53:05;18.00;98.50
4435;DHT22;46552;52.150;8.428;2023-03-18T15:55:44;18.00;96.60
4435;DHT22;46552;52.150;8.428;2023-03-18T15:58:20;14.60;95.40
4435;DHT22;46552;52.150;8.428;2023-03-18T16:03:19;17.70;97.10
4435;DHT22;46552;52.150;8.428;2023-03-18T16:05:49;17.60;97.20
4435;DHT22;46552;52.150;8.428;2023-03-18T16:08:18;17.50;97.30
4435;DHT22;46552;52.150;8.428;2023-03-18T16:10:48;17.50;97.50
4435;DHT22;46552;52.150;8.428;2023-03-18T16:13:18;17.40;97.50
4435;DHT22;46552;52.150;8.428;2023-03-18T16:15:48;17.30;97.60
4435;DHT22;46552;52.150;8.428;2023-03-18T16:23:13;17.20;97.90
4435;DHT22;46552;52.150;8.428;2023-03-18T16:25:42;17.10;97.90
4435;DHT22;46552;52.150;8.428;2023-03-18T16:28:16;17.10;97.90
4435;DHT22;46552;52.150;8.428;2023-03-18T16:30:46;17.00;98.10
4435;DHT22;46552;52.150;8.428;2023-03-18T16:33:15;16.90;98.10
4435;DHT22;46552;52.150;8.428;2023-03-18T16:38:15;16.90;98.20
4435;DHT22;46552;52.150;8.428;2023-03-18T16:40:43;16.80;98.10
4435;DHT22;46552;52.150;8.428;2023-03-18T16:43:16;16.70;98.20
4435;DHT22;46552;52.150;8.428;2023-03-18T16:45:45;16.70;98.30
4435;DHT22;46552;52.150;8.428;2023-03-18T16:48:14;16.70;98.40
4435;DHT22;46552;52.150;8.428;2023-03-18T16:50:43;16.70;98.50
4435;DHT22;46552;52.150;8.428;2023-03-18T16:53:17;16.70;98.60
4435;DHT22;46552;52.150;8.428;2023-03-18T16:55:45;16.70;98.60
4435;DHT22;46552;52.150;8.428;2023-03-18T16:58:14;16.70;98.70
4435;DHT22;46552;52.150;8.428;2023-03-18T17:00:43;16.70;98.70
4435;DHT22;46552;52.150;8.428;2023-03-18T17:03:13;16.70;98.80
4435;DHT22;46552;52.150;8.428;2023-03-18T17:05:43;16.60;98.80
4435;DHT22;46552;52.150;8.428;2023-03-18T17:08:10;16.40;99.90
4435;DHT22;46552;52.150;8.428;2023-03-18T17:10:40;16.60;98.90
4435;DHT22;46552;52.150;8.428;2023-03-18T17:13:15;16.60;99.00
4435;DHT22;46552;52.150;8.428;2023-03-18T17:15:43;16.60;99.90
4435;DHT22;46552;52.150;8.428;2023-03-18T17:18:13;16.50;99.30
4435;DHT22;46552;52.150;8.428;2023-03-18T17:23:14;16.40;99.70
4435;DHT22;46552;52.150;8.428;2023-03-18T17:25:49;16.40;99.80
4435;DHT22;46552;52.150;8.428;2023-03-18T17:28:21;16.40;99.90
4435;DHT22;46552;52.150;8.428;2023-03-18T17:33:24;16.40;99.90
4435;DHT22;46552;52.150;8.428;2023-03-18T17:35:52;16.30;99.90
4435;DHT22;46552;52.150;8.428;2023-03-18T17:38:20;16.20;99.90
4435;DHT22;46552;52.150;8.428;2023-03-18T17:40:48;16.10;99.90
4435;DHT22;46552;52.150;8.428;2023-03-18T17:43:20;15.80;99.90
4435;DHT22;46552;52.150;8.428;2023-03-18T17:48:17;12.70;99.90
4435;DHT22;46552;52.150;8.428;2023-03-18T17:50:47;14.70;99.90
4435;DHT22;46552;52.150;8.428;2023-03-18T17:53:28;14.40;99.90
4435;DHT22;46552;52.150;8.428;2023-03-18T17:55:59;14.50;99.90
4435;DHT22;46552;52.150;8.428;2023-03-18T17:58:29;14.40;99.90
4435;DHT22;46552;52.150;8.428;2023-03-18T18:01:02;14.30;99.90
4435;DHT22;46552;52.150;8.428;2023-03-18T18:05:57;14.30;99.90
4435;DHT22;46552;52.150;8.428;2023-03-18T18:08:26;14.20;99.90
4435;DHT22;46552;52.150;8.428;2023-03-18T18:11:03;14.10;99.90
4435;DHT22;46552;52.150;8.428;2023-03-18T18:18:31;13.90;99.90
4435;DHT22;46552;52.150;8.428;2023-03-18T18:21:01;13.90;99.90
4435;DHT22;46552;52.150;8.428;2023-03-18T18:23:31;13.90;99.90
4435;DHT22;46552;52.150;8.428;2023-03-18T18:26:02;13.90;99.90
4435;DHT22;46552;52.150;8.428;2023-03-18T18:28:31;13.80;99.90
4435;DHT22;46552;52.150;8.428;2023-03-18T18:31:00;13.70;99.90
4435;DHT22;46552;52.150;8.428;2023-03-18T18:43:20;13.70;99.90
4435;DHT22;46552;52.150;8.428;2023-03-18T18:48:17;13.70;99.90
4435;DHT22;46552;52.150;8.428;2023-03-18T18:53:19;13.50;99.90
4435;DHT22;46552;52.150;8.428;2023-03-18T18:58:16;13.50;99.90
4435;DHT22;46552;52.150;8.428;2023-03-18T19:00:45;13.50;99.90
4435;DHT22;46552;52.150;8.428;2023-03-18T19:03:15;13.50;99.90
4435;DHT22;46552;52.150;8.428;2023-03-18T19:05:44;13.50;99.90
4435;DHT22;46552;52.150;8.428;2023-03-18T19:08:22;13.50;99.90
4435;DHT22;46552;52.150;8.428;2023-03-18T19:10:51;13.30;99.90
4435;DHT22;46552;52.150;8.428;2023-03-18T19:15:49;13.30;99.90
4435;DHT22;46552;52.150;8.428;2023-03-18T19:18:18;13.30;99.90
4435;DHT22;46552;52.150;8.428;2023-03-18T19:20:47;13.40;99.90
4435;DHT22;46552;52.150;8.428;2023-03-18T19:23:15;13.30;99.90
4435;DHT22;46552;52.150;8.428;2023-03-18T19:28:19;13.50;99.90
4435;DHT22;46552;52.150;8.428;2023-03-18T19:30:56;13.30;99.90
4435;DHT22;46552;52.150;8.428;2023-03-18T19:38:19;13.10;99.90
4435;DHT22;46552;52.150;8.428;2023-03-18T19:40:48;13.00;99.90
4435;DHT22;46552;52.150;8.428;2023-03-18T19:43:17;13.00;99.90
4435;DHT22;46552;52.150;8.428;2023-03-18T19:45:46;13.00;99.90
4435;DHT22;46552;52.150;8.428;2023-03-18T19:48:17;12.90;99.90
4435;DHT22;46552;52.150;8.428;2023-03-18T19:53:13;12.90;99.90
4435;DHT22;46552;52.150;8.428;2023-03-18T19:58:15;12.80;99.90
4435;DHT22;46552;52.150;8.428;2023-03-18T20:03:17;12.80;99.90
4435;DHT22;46552;52.150;8.428;2023-03-18T20:05:45;12.70;99.90
4435;DHT22;46552;52.150;8.428;2023-03-18T20:10:42;15.00;99.90
4435;DHT22;46552;52.150;8.428;2023-03-18T20:13:14;12.60;99.90
4435;DHT22;46552;52.150;8.428;2023-03-18T20:18:17;12.60;99.90
4435;DHT22;46552;52.150;8.428;2023-03-18T20:20:48;12.50;99.90
4435;DHT22;46552;52.150;8.428;2023-03-18T20:23:19;12.50;99.90
4435;DHT22;46552;52.150;8.428;2023-03-18T20:28:19;12.50;99.90
4435;DHT22;46552;52.150;8.428;2023-03-18T20:30:48;12.50;99.90
4435;DHT22;46552;52.150;8.428;2023-03-18T20:33:19;12.50;99.90
4435;DHT22;46552;52.150;8.428;2023-03-18T20:35:48;12.50;99.90
4435;DHT22;46552;52.150;8.428;2023-03-18T20:38:22;12.40;99.90
4435;DHT22;46552;52.150;8.428;2023-03-18T20:43:20;12.40;99.90
4435;DHT22;46552;52.150;8.428;2023-03-18T20:50:45;12.30;99.90
4435;DHT22;46552;52.150;8.428;2023-03-18T20:53:15;12.30;99.90
4435;DHT22;46552;52.150;8.428;2023-03-18T20:58:14;12.20;99.90
4435;DHT22;46552;52.150;8.428;2023-03-18T21:00:43;12.20;99.90
4435;DHT22;46552;52.150;8.428;2023-03-18T21:03:20;12.20;99.90
4435;DHT22;46552;52.150;8.428;2023-03-18T21:05:50;12.20;99.90
4435;DHT22;46552;52.150;8.428;2023-03-18T21:08:18;12.10;99.90
4435;DHT22;46552;52.150;8.428;2023-03-18T21:13:17;12.10;99.90
4435;DHT22;46552;52.150;8.428;2023-03-18T21:23:22;11.90;99.90
4435;DHT22;46552;52.150;8.428;2023-03-18T21:25:50;11.80;99.90
4435;DHT22;46552;52.150;8.428;2023-03-18T21:28:20;11.80;99.90
4435;DHT22;46552;52.150;8.428;2023-03-18T21:30:50;11.70;99.90
4435;DHT22;46552;52.150;8.428;2023-03-18T21:33:20;9.40;99.90
4435;DHT22;46552;52.150;8.428;2023-03-18T21:35:49;11.70;99.90
4435;DHT22;46552;52.150;8.428;2023-03-18T21:40:47;11.70;99.90
4435;DHT22;46552;52.150;8.428;2023-03-18T21:43:28;12.10;99.90
4435;DHT22;46552;52.150;8.428;2023-03-18T21:50:52;11.80;99.90
4435;DHT22;46552;52.150;8.428;2023-03-18T21:53:21;11.80;99.90
4435;DHT22;46552;52.150;8.428;2023-03-18T21:55:51;11.80;99.90
4435;DHT22;46552;52.150;8.428;2023-03-18T21:58:20;11.80;99.90
4435;DHT22;46552;52.150;8.428;2023-03-18T22:00:50;11.80;99.90
4435;DHT22;46552;52.150;8.428;2023-03-18T22:03:21;11.70;99.90
4435;DHT22;46552;52.150;8.428;2023-03-18T22:05:48;11.70;99.90
4435;DHT22;46552;52.150;8.428;2023-03-18T22:13:20;11.50;99.90
4435;DHT22;46552;52.150;8.428;2023-03-18T22:15:48;11.60;99.90
4435;DHT22;46552;52.150;8.428;2023-03-18T22:20:45;11.50;99.90
4435;DHT22;46552;52.150;8.428;2023-03-18T22:23:15;11.50;99.90
4435;DHT22;46552;52.150;8.428;2023-03-18T22:30:40;11.40;99.90
4435;DHT22;46552;52.150;8.428;2023-03-18T22:33:18;11.30;99.90
4435;DHT22;46552;52.150;8.428;2023-03-18T22:38:15;11.20;99.90
4435;DHT22;46552;52.150;8.428;2023-03-18T22:40:44;11.20;99.90
4435;DHT22;46552;52.150;8.428;2023-03-18T22:43:29;11.20;99.90
4435;DHT22;46552;52.150;8.428;2023-03-18T22:45:59;11.20;99.90
4435;DHT22;46552;52.150;8.428;2023-03-18T22:50:55;11.20;99.90
4435;DHT22;46552;52.150;8.428;2023-03-18T22:53:26;11.10;99.90
4435;DHT22;46552;52.150;8.428;2023-03-18T22:55:55;11.10;99.90
4435;DHT22;46552;52.150;8.428;2023-03-18T22:58:25;11.10;99.90
4435;DHT22;46552;52.150;8.428;2023-03-18T23:00:54;11.10;99.90
4435;DHT22;46552;52.150;8.428;2023-03-18T23:03:26;11.10;99.90
4435;DHT22;46552;52.150;8.428;2023-03-18T23:05:55;11.10;99.90
4435;DHT22;46552;52.150;8.428;2023-03-18T23:10:51;11.00;99.90
4435;DHT22;46552;52.150;8.428;2023-03-18T23:13:25;11.00;99.90
4435;DHT22;46552;52.150;8.428;2023-03-18T23:20:51;11.00;99.90
4435;DHT22;46552;52.150;8.428;2023-03-18T23:25:47;10.90;99.90
4435;DHT22;46552;52.150;8.428;2023-03-18T23:30:45;10.80;99.90
4435;DHT22;46552;52.150;8.428;2023-03-18T23:38:11;10.70;99.90
4435;DHT22;46552;52.150;8.428;2023-03-18T23:45:34;10.60;99.90
4435;DHT22;46552;52.150;8.428;2023-03-18T23:55:26;10.50;99.90
